Terminal Aerodrome Forecast
Issued by NWS

Current Version | Previous Version | Graphics & Text | Print | Product List | Glossary On
Versions: 1 2 3 4 5 6 7 8 9 10 11 12 13 14 15 16
960
FTUS41 KILN 211133
TAFLUK
TAF
KLUK 211133Z 2112/2212 34002KT 6SM BR VCSH OVC008
      TEMPO 2112/2114 4SM -RA BR OVC004
     FM211400 35008KT P6SM SCT008 OVC012
     FM211800 36012KT P6SM VCSH SCT020 BKN035
     FM220000 35006KT P6SM SCT060=

USA.gov is the U.S. government's official web portal to all federal, state and local government web resources and services.